sensor_id;sensor_type;location;lat;lon;timestamp;P1;durP1;ratioP1;P2;durP2;ratioP2
10497;SDS011;5296;51.060;13.750;2023-01-08T00:00:10;6.05;;;5.32;;
10497;SDS011;5296;51.060;13.750;2023-01-08T00:05:13;6.32;;;5.38;;
10497;SDS011;5296;51.060;13.750;2023-01-08T00:10:14;6.40;;;5.40;;
10497;SDS011;5296;51.060;13.750;2023-01-08T00:15:16;7.70;;;6.03;;
10497;SDS011;5296;51.060;13.750;2023-01-08T00:20:17;6.30;;;5.70;;
10497;SDS011;5296;51.060;13.750;2023-01-08T00:25:19;7.22;;;6.03;;
10497;SDS011;5296;51.060;13.750;2023-01-08T00:30:21;6.45;;;5.85;;
10497;SDS011;5296;51.060;13.750;2023-01-08T00:35:22;7.18;;;6.30;;
10497;SDS011;5296;51.060;13.750;2023-01-08T00:40:24;6.65;;;6.00;;
10497;SDS011;5296;51.060;13.750;2023-01-08T00:45:26;7.00;;;6.22;;
10497;SDS011;5296;51.060;13.750;2023-01-08T00:50:27;7.47;;;6.60;;
10497;SDS011;5296;51.060;13.750;2023-01-08T00:55:29;8.93;;;6.50;;
10497;SDS011;5296;51.060;13.750;2023-01-08T01:00:31;7.47;;;6.78;;
10497;SDS011;5296;51.060;13.750;2023-01-08T01:05:32;6.70;;;6.00;;
10497;SDS011;5296;51.060;13.750;2023-01-08T01:10:34;7.15;;;6.43;;
10497;SDS011;5296;51.060;13.750;2023-01-08T01:15:36;7.22;;;6.13;;
10497;SDS011;5296;51.060;13.750;2023-01-08T01:20:37;7.47;;;6.68;;
10497;SDS011;5296;51.060;13.750;2023-01-08T01:25:39;6.82;;;6.22;;
10497;SDS011;5296;51.060;13.750;2023-01-08T01:30:40;6.55;;;5.90;;
10497;SDS011;5296;51.060;13.750;2023-01-08T01:35:42;6.90;;;6.13;;
10497;SDS011;5296;51.060;13.750;2023-01-08T01:40:44;7.03;;;6.28;;
10497;SDS011;5296;51.060;13.750;2023-01-08T01:45:45;6.32;;;5.72;;
10497;SDS011;5296;51.060;13.750;2023-01-08T01:50:48;7.03;;;6.32;;
10497;SDS011;5296;51.060;13.750;2023-01-08T01:55:52;7.05;;;6.22;;
10497;SDS011;5296;51.060;13.750;2023-01-08T02:00:54;7.15;;;6.45;;
10497;SDS011;5296;51.060;13.750;2023-01-08T02:06:08;7.57;;;6.80;;
10497;SDS011;5296;51.060;13.750;2023-01-08T02:11:33;9.40;;;6.78;;
10497;SDS011;5296;51.060;13.750;2023-01-08T02:16:42;7.60;;;5.88;;
10497;SDS011;5296;51.060;13.750;2023-01-08T02:22:32;6.85;;;6.15;;
10497;SDS011;5296;51.060;13.750;2023-01-08T02:27:13;7.50;;;6.78;;
10497;SDS011;5296;51.060;13.750;2023-01-08T02:32:15;7.63;;;6.82;;
10497;SDS011;5296;51.060;13.750;2023-01-08T02:37:17;7.32;;;6.63;;
10497;SDS011;5296;51.060;13.750;2023-01-08T02:47:45;7.68;;;6.75;;
10497;SDS011;5296;51.060;13.750;2023-01-08T02:57:55;9.52;;;7.45;;
10497;SDS011;5296;51.060;13.750;2023-01-08T03:03:06;8.57;;;7.00;;
10497;SDS011;5296;51.060;13.750;2023-01-08T03:08:11;9.38;;;7.80;;
10497;SDS011;5296;51.060;13.750;2023-01-08T03:13:17;8.80;;;7.90;;
10497;SDS011;5296;51.060;13.750;2023-01-08T03:18:24;8.63;;;7.60;;
10497;SDS011;5296;51.060;13.750;2023-01-08T03:23:30;8.73;;;7.68;;
10497;SDS011;5296;51.060;13.750;2023-01-08T03:28:39;8.30;;;7.50;;
10497;SDS011;5296;51.060;13.750;2023-01-08T03:33:44;9.43;;;8.40;;
10497;SDS011;5296;51.060;13.750;2023-01-08T03:38:49;9.43;;;8.32;;
10497;SDS011;5296;51.060;13.750;2023-01-08T03:43:53;8.45;;;7.65;;
10497;SDS011;5296;51.060;13.750;2023-01-08T03:48:55;9.68;;;8.43;;
10497;SDS011;5296;51.060;13.750;2023-01-08T03:53:58;10.18;;;9.15;;
10497;SDS011;5296;51.060;13.750;2023-01-08T03:59:00;9.82;;;7.97;;
10497;SDS011;5296;51.060;13.750;2023-01-08T04:04:01;8.88;;;7.97;;
10497;SDS011;5296;51.060;13.750;2023-01-08T04:09:03;9.07;;;8.27;;
10497;SDS011;5296;51.060;13.750;2023-01-08T04:14:05;10.20;;;9.15;;
10497;SDS011;5296;51.060;13.750;2023-01-08T04:19:06;9.27;;;8.07;;
10497;SDS011;5296;51.060;13.750;2023-01-08T04:24:09;9.60;;;8.60;;
10497;SDS011;5296;51.060;13.750;2023-01-08T04:29:12;9.75;;;8.82;;
10497;SDS011;5296;51.060;13.750;2023-01-08T04:34:14;10.15;;;8.75;;
10497;SDS011;5296;51.060;13.750;2023-01-08T04:39:16;9.57;;;8.68;;
10497;SDS011;5296;51.060;13.750;2023-01-08T04:44:17;8.73;;;7.82;;
10497;SDS011;5296;51.060;13.750;2023-01-08T04:49:19;9.50;;;8.60;;
10497;SDS011;5296;51.060;13.750;2023-01-08T04:54:21;9.48;;;8.55;;
10497;SDS011;5296;51.060;13.750;2023-01-08T04:59:22;9.70;;;8.73;;
10497;SDS011;5296;51.060;13.750;2023-01-08T05:04:24;9.38;;;8.43;;
10497;SDS011;5296;51.060;13.750;2023-01-08T05:09:26;10.07;;;8.98;;
10497;SDS011;5296;51.060;13.750;2023-01-08T05:14:27;10.70;;;9.60;;
10497;SDS011;5296;51.060;13.750;2023-01-08T05:19:29;9.65;;;8.75;;
10497;SDS011;5296;51.060;13.750;2023-01-08T05:24:30;10.27;;;9.23;;
10497;SDS011;5296;51.060;13.750;2023-01-08T05:29:33;10.23;;;9.23;;
10497;SDS011;5296;51.060;13.750;2023-01-08T05:34:35;9.85;;;8.85;;
10497;SDS011;5296;51.060;13.750;2023-01-08T05:39:36;10.50;;;9.50;;
10497;SDS011;5296;51.060;13.750;2023-01-08T05:44:38;9.95;;;8.93;;
10497;SDS011;5296;51.060;13.750;2023-01-08T05:49:40;10.00;;;9.00;;
10497;SDS011;5296;51.060;13.750;2023-01-08T05:54:41;11.25;;;10.00;;
10497;SDS011;5296;51.060;13.750;2023-01-08T05:59:43;11.32;;;10.23;;
10497;SDS011;5296;51.060;13.750;2023-01-08T06:04:44;11.57;;;10.38;;
10497;SDS011;5296;51.060;13.750;2023-01-08T06:09:46;12.05;;;10.70;;
10497;SDS011;5296;51.060;13.750;2023-01-08T06:14:48;11.10;;;9.93;;
10497;SDS011;5296;51.060;13.750;2023-01-08T06:19:49;12.60;;;10.52;;
10497;SDS011;5296;51.060;13.750;2023-01-08T06:24:51;12.00;;;10.80;;
10497;SDS011;5296;51.060;13.750;2023-01-08T06:29:53;12.60;;;11.40;;
10497;SDS011;5296;51.060;13.750;2023-01-08T06:34:54;11.55;;;10.38;;
10497;SDS011;5296;51.060;13.750;2023-01-08T06:39:56;11.95;;;10.75;;
10497;SDS011;5296;51.060;13.750;2023-01-08T06:44:57;11.75;;;10.50;;
10497;SDS011;5296;51.060;13.750;2023-01-08T06:49:59;12.90;;;11.15;;
10497;SDS011;5296;51.060;13.750;2023-01-08T06:55:01;11.55;;;10.13;;
10497;SDS011;5296;51.060;13.750;2023-01-08T07:00:05;11.82;;;10.57;;
10497;SDS011;5296;51.060;13.750;2023-01-08T07:05:07;11.60;;;10.40;;
10497;SDS011;5296;51.060;13.750;2023-01-08T07:10:09;12.63;;;10.85;;
10497;SDS011;5296;51.060;13.750;2023-01-08T07:15:11;12.20;;;10.98;;
10497;SDS011;5296;51.060;13.750;2023-01-08T07:20:13;11.85;;;10.65;;
10497;SDS011;5296;51.060;13.750;2023-01-08T07:25:14;12.65;;;10.40;;
10497;SDS011;5296;51.060;13.750;2023-01-08T07:30:16;12.77;;;10.68;;
10497;SDS011;5296;51.060;13.750;2023-01-08T07:35:29;11.43;;;10.27;;
10497;SDS011;5296;51.060;13.750;2023-01-08T07:40:31;10.85;;;9.43;;
10497;SDS011;5296;51.060;13.750;2023-01-08T07:45:33;11.15;;;9.95;;
10497;SDS011;5296;51.060;13.750;2023-01-08T07:50:35;11.68;;;10.35;;
10497;SDS011;5296;51.060;13.750;2023-01-08T07:55:37;11.55;;;10.15;;
10497;SDS011;5296;51.060;13.750;2023-01-08T08:00:39;11.43;;;10.23;;
10497;SDS011;5296;51.060;13.750;2023-01-08T08:05:41;10.40;;;8.77;;
10497;SDS011;5296;51.060;13.750;2023-01-08T08:10:43;10.63;;;9.30;;
10497;SDS011;5296;51.060;13.750;2023-01-08T08:15:45;11.18;;;9.90;;
10497;SDS011;5296;51.060;13.750;2023-01-08T08:20:46;10.40;;;9.27;;
10497;SDS011;5296;51.060;13.750;2023-01-08T08:25:52;9.88;;;8.88;;
10497;SDS011;5296;51.060;13.750;2023-01-08T08:30:53;9.23;;;8.20;;
10497;SDS011;5296;51.060;13.750;2023-01-08T08:35:55;10.32;;;8.98;;
10497;SDS011;5296;51.060;13.750;2023-01-08T08:40:57;10.07;;;8.70;;
10497;SDS011;5296;51.060;13.750;2023-01-08T08:45:58;9.98;;;8.60;;
10497;SDS011;5296;51.060;13.750;2023-01-08T08:51:00;9.18;;;8.23;;
10497;SDS011;5296;51.060;13.750;2023-01-08T08:56:02;9.50;;;8.48;;
10497;SDS011;5296;51.060;13.750;2023-01-08T09:01:03;9.05;;;7.82;;
10497;SDS011;5296;51.060;13.750;2023-01-08T09:06:05;9.10;;;8.00;;
10497;SDS011;5296;51.060;13.750;2023-01-08T09:11:07;8.48;;;7.57;;
10497;SDS011;5296;51.060;13.750;2023-01-08T09:16:10;9.10;;;8.20;;
10497;SDS011;5296;51.060;13.750;2023-01-08T09:21:11;9.40;;;8.40;;
10497;SDS011;5296;51.060;13.750;2023-01-08T09:26:13;9.80;;;8.10;;
10497;SDS011;5296;51.060;13.750;2023-01-08T09:31:15;10.13;;;8.52;;
10497;SDS011;5296;51.060;13.750;2023-01-08T09:36:17;9.60;;;8.18;;
10497;SDS011;5296;51.060;13.750;2023-01-08T09:41:20;9.45;;;8.32;;
10497;SDS011;5296;51.060;13.750;2023-01-08T09:46:25;9.75;;;8.13;;
10497;SDS011;5296;51.060;13.750;2023-01-08T09:51:32;8.55;;;7.65;;
10497;SDS011;5296;51.060;13.750;2023-01-08T09:56:35;9.00;;;7.95;;
10497;SDS011;5296;51.060;13.750;2023-01-08T10:01:37;8.27;;;7.47;;
10497;SDS011;5296;51.060;13.750;2023-01-08T10:06:51;9.70;;;7.68;;
10497;SDS011;5296;51.060;13.750;2023-01-08T10:11:55;8.98;;;7.90;;
10497;SDS011;5296;51.060;13.750;2023-01-08T10:17:02;8.40;;;7.57;;
10497;SDS011;5296;51.060;13.750;2023-01-08T10:22:14;8.25;;;7.45;;
10497;SDS011;5296;51.060;13.750;2023-01-08T10:27:22;8.55;;;7.68;;
10497;SDS011;5296;51.060;13.750;2023-01-08T10:32:28;9.55;;;8.20;;
10497;SDS011;5296;51.060;13.750;2023-01-08T10:37:36;8.55;;;7.65;;
10497;SDS011;5296;51.060;13.750;2023-01-08T10:42:39;8.75;;;7.85;;
10497;SDS011;5296;51.060;13.750;2023-01-08T10:47:41;9.13;;;7.53;;
10497;SDS011;5296;51.060;13.750;2023-01-08T10:52:54;8.57;;;7.63;;
10497;SDS011;5296;51.060;13.750;2023-01-08T10:58:10;8.18;;;7.38;;
10497;SDS011;5296;51.060;13.750;2023-01-08T11:03:19;8.80;;;7.90;;
10497;SDS011;5296;51.060;13.750;2023-01-08T11:08:27;8.90;;;7.90;;
10497;SDS011;5296;51.060;13.750;2023-01-08T11:13:29;9.60;;;8.02;;
10497;SDS011;5296;51.060;13.750;2023-01-08T11:18:31;8.25;;;7.45;;
10497;SDS011;5296;51.060;13.750;2023-01-08T11:23:37;9.88;;;8.88;;
10497;SDS011;5296;51.060;13.750;2023-01-08T11:28:48;9.07;;;8.18;;
10497;SDS011;5296;51.060;13.750;2023-01-08T11:33:52;8.98;;;8.05;;
10497;SDS011;5296;51.060;13.750;2023-01-08T11:38:59;8.77;;;7.88;;
10497;SDS011;5296;51.060;13.750;2023-01-08T11:44:21;9.07;;;7.45;;
10497;SDS011;5296;51.060;13.750;2023-01-08T11:49:59;8.52;;;7.72;;
10497;SDS011;5296;51.060;13.750;2023-01-08T11:55:14;8.35;;;7.47;;
10497;SDS011;5296;51.060;13.750;2023-01-08T12:05:40;9.00;;;8.10;;
10497;SDS011;5296;51.060;13.750;2023-01-08T12:21:33;9.35;;;7.82;;
10497;SDS011;5296;51.060;13.750;2023-01-08T12:33:04;8.77;;;7.88;;
10497;SDS011;5296;51.060;13.750;2023-01-08T12:43:05;8.57;;;7.53;;
10497;SDS011;5296;51.060;13.750;2023-01-08T12:48:20;9.20;;;8.13;;
10497;SDS011;5296;51.060;13.750;2023-01-08T12:53:35;11.00;;;8.75;;
10497;SDS011;5296;51.060;13.750;2023-01-08T12:58:57;9.45;;;7.72;;
10497;SDS011;5296;51.060;13.750;2023-01-08T13:04:05;11.73;;;8.57;;
10497;SDS011;5296;51.060;13.750;2023-01-08T13:09:14;9.57;;;8.45;;
10497;SDS011;5296;51.060;13.750;2023-01-08T13:14:21;8.77;;;7.88;;
10497;SDS011;5296;51.060;13.750;2023-01-08T13:19:24;9.75;;;8.75;;
10497;SDS011;5296;51.060;13.750;2023-01-08T13:29:40;9.05;;;8.13;;
10497;SDS011;5296;51.060;13.750;2023-01-08T13:34:43;11.15;;;8.77;;
10497;SDS011;5296;51.060;13.750;2023-01-08T13:39:44;11.27;;;9.00;;
10497;SDS011;5296;51.060;13.750;2023-01-08T13:44:47;11.55;;;9.00;;
10497;SDS011;5296;51.060;13.750;2023-01-08T13:49:53;10.95;;;8.38;;
10497;SDS011;5296;51.060;13.750;2023-01-08T13:54:55;10.55;;;8.50;;
10497;SDS011;5296;51.060;13.750;2023-01-08T13:59:57;11.25;;;10.10;;
10497;SDS011;5296;51.060;13.750;2023-01-08T14:04:59;9.93;;;8.70;;
10497;SDS011;5296;51.060;13.750;2023-01-08T14:10:06;9.95;;;8.48;;
10497;SDS011;5296;51.060;13.750;2023-01-08T14:15:15;9.70;;;7.93;;
10497;SDS011;5296;51.060;13.750;2023-01-08T14:25:33;10.40;;;8.95;;
10497;SDS011;5296;51.060;13.750;2023-01-08T14:30:35;10.52;;;8.48;;
10497;SDS011;5296;51.060;13.750;2023-01-08T14:35:37;11.93;;;9.60;;
10497;SDS011;5296;51.060;13.750;2023-01-08T14:40:41;10.85;;;9.13;;
10497;SDS011;5296;51.060;13.750;2023-01-08T14:45:46;13.57;;;9.63;;
10497;SDS011;5296;51.060;13.750;2023-01-08T14:50:55;11.35;;;9.13;;
10497;SDS011;5296;51.060;13.750;2023-01-08T14:56:01;9.35;;;8.30;;
10497;SDS011;5296;51.060;13.750;2023-01-08T15:01:06;9.50;;;8.55;;
10497;SDS011;5296;51.060;13.750;2023-01-08T15:06:10;10.57;;;9.48;;
10497;SDS011;5296;51.060;13.750;2023-01-08T15:21:31;10.75;;;8.65;;
10497;SDS011;5296;51.060;13.750;2023-01-08T15:26:34;11.35;;;8.80;;
10497;SDS011;5296;51.060;13.750;2023-01-08T15:36:44;10.45;;;9.35;;
10497;SDS011;5296;51.060;13.750;2023-01-08T15:41:46;11.13;;;9.35;;
10497;SDS011;5296;51.060;13.750;2023-01-08T15:47:07;11.57;;;10.35;;
10497;SDS011;5296;51.060;13.750;2023-01-08T15:52:08;12.00;;;9.65;;
10497;SDS011;5296;51.060;13.750;2023-01-08T15:57:10;11.02;;;9.25;;
10497;SDS011;5296;51.060;13.750;2023-01-08T16:02:12;10.48;;;9.25;;
10497;SDS011;5296;51.060;13.750;2023-01-08T16:07:15;10.80;;;9.32;;
10497;SDS011;5296;51.060;13.750;2023-01-08T16:12:17;10.73;;;9.60;;
10497;SDS011;5296;51.060;13.750;2023-01-08T16:17:18;12.15;;;9.70;;
10497;SDS011;5296;51.060;13.750;2023-01-08T16:22:20;9.80;;;8.65;;
10497;SDS011;5296;51.060;13.750;2023-01-08T16:27:22;9.48;;;8.35;;
10497;SDS011;5296;51.060;13.750;2023-01-08T16:32:24;11.20;;;9.27;;
10497;SDS011;5296;51.060;13.750;2023-01-08T16:37:25;10.07;;;9.07;;
10497;SDS011;5296;51.060;13.750;2023-01-08T16:42:27;10.15;;;9.15;;
10497;SDS011;5296;51.060;13.750;2023-01-08T16:47:28;9.93;;;8.93;;
10497;SDS011;5296;51.060;13.750;2023-01-08T16:52:30;9.60;;;8.70;;
10497;SDS011;5296;51.060;13.750;2023-01-08T16:57:32;9.63;;;8.63;;
10497;SDS011;5296;51.060;13.750;2023-01-08T17:02:33;10.90;;;9.80;;
10497;SDS011;5296;51.060;13.750;2023-01-08T17:07:35;10.45;;;9.45;;
10497;SDS011;5296;51.060;13.750;2023-01-08T17:12:37;11.00;;;9.85;;
10497;SDS011;5296;51.060;13.750;2023-01-08T17:17:38;10.68;;;9.57;;
10497;SDS011;5296;51.060;13.750;2023-01-08T17:22:40;10.05;;;9.05;;
10497;SDS011;5296;51.060;13.750;2023-01-08T17:27:41;10.68;;;9.18;;
10497;SDS011;5296;51.060;13.750;2023-01-08T17:32:43;10.48;;;9.48;;
10497;SDS011;5296;51.060;13.750;2023-01-08T17:37:45;10.38;;;9.32;;
10497;SDS011;5296;51.060;13.750;2023-01-08T17:42:47;9.75;;;8.85;;
10497;SDS011;5296;51.060;13.750;2023-01-08T17:47:48;9.95;;;9.00;;
10497;SDS011;5296;51.060;13.750;2023-01-08T17:52:50;11.02;;;9.93;;
10497;SDS011;5296;51.060;13.750;2023-01-08T17:57:52;11.15;;;9.95;;
10497;SDS011;5296;51.060;13.750;2023-01-08T18:02:53;11.07;;;9.98;;
10497;SDS011;5296;51.060;13.750;2023-01-08T18:07:55;12.23;;;11.02;;
10497;SDS011;5296;51.060;13.750;2023-01-08T18:12:57;12.30;;;11.10;;
10497;SDS011;5296;51.060;13.750;2023-01-08T18:17:59;13.52;;;12.13;;
10497;SDS011;5296;51.060;13.750;2023-01-08T18:23:01;14.38;;;12.32;;
10497;SDS011;5296;51.060;13.750;2023-01-08T18:28:02;13.23;;;11.93;;
10497;SDS011;5296;51.060;13.750;2023-01-08T18:33:05;13.32;;;12.02;;
10497;SDS011;5296;51.060;13.750;2023-01-08T18:38:07;14.02;;;12.63;;
10497;SDS011;5296;51.060;13.750;2023-01-08T18:43:16;14.05;;;12.55;;
10497;SDS011;5296;51.060;13.750;2023-01-08T18:48:17;12.65;;;11.45;;
10497;SDS011;5296;51.060;13.750;2023-01-08T18:53:19;13.05;;;11.75;;
10497;SDS011;5296;51.060;13.750;2023-01-08T18:58:21;13.55;;;12.18;;
10497;SDS011;5296;51.060;13.750;2023-01-08T19:03:22;13.25;;;11.85;;
10497;SDS011;5296;51.060;13.750;2023-01-08T19:08:24;12.25;;;10.95;;
10497;SDS011;5296;51.060;13.750;2023-01-08T19:13:26;12.48;;;11.18;;
10497;SDS011;5296;51.060;13.750;2023-01-08T19:18:27;12.52;;;11.23;;
10497;SDS011;5296;51.060;13.750;2023-01-08T19:23:29;13.05;;;11.63;;
10497;SDS011;5296;51.060;13.750;2023-01-08T19:28:31;12.60;;;11.18;;
10497;SDS011;5296;51.060;13.750;2023-01-08T19:33:32;13.55;;;11.55;;
10497;SDS011;5296;51.060;13.750;2023-01-08T19:38:34;13.20;;;11.90;;
10497;SDS011;5296;51.060;13.750;2023-01-08T19:43:35;13.80;;;12.30;;
10497;SDS011;5296;51.060;13.750;2023-01-08T19:48:43;13.70;;;12.20;;
10497;SDS011;5296;51.060;13.750;2023-01-08T19:53:45;13.40;;;12.00;;
10497;SDS011;5296;51.060;13.750;2023-01-08T19:58:47;13.95;;;12.50;;
10497;SDS011;5296;51.060;13.750;2023-01-08T20:03:49;13.82;;;11.85;;
10497;SDS011;5296;51.060;13.750;2023-01-08T20:08:51;14.30;;;11.38;;
10497;SDS011;5296;51.060;13.750;2023-01-08T20:13:54;12.75;;;11.45;;
10497;SDS011;5296;51.060;13.750;2023-01-08T20:19:00;12.73;;;11.40;;
10497;SDS011;5296;51.060;13.750;2023-01-08T20:24:05;13.65;;;11.77;;
10497;SDS011;5296;51.060;13.750;2023-01-08T20:29:12;12.13;;;10.38;;
10497;SDS011;5296;51.060;13.750;2023-01-08T20:34:14;12.70;;;11.38;;
10497;SDS011;5296;51.060;13.750;2023-01-08T20:39:16;12.52;;;11.23;;
10497;SDS011;5296;51.060;13.750;2023-01-08T20:44:18;13.50;;;11.15;;
10497;SDS011;5296;51.060;13.750;2023-01-08T20:49:20;12.77;;;11.48;;
10497;SDS011;5296;51.060;13.750;2023-01-08T20:54:21;12.55;;;11.25;;
10497;SDS011;5296;51.060;13.750;2023-01-08T20:59:23;12.02;;;10.82;;
10497;SDS011;5296;51.060;13.750;2023-01-08T21:04:25;12.38;;;11.05;;
10497;SDS011;5296;51.060;13.750;2023-01-08T21:09:27;11.82;;;10.60;;
10497;SDS011;5296;51.060;13.750;2023-01-08T21:14:28;12.68;;;10.80;;
10497;SDS011;5296;51.060;13.750;2023-01-08T21:19:30;11.80;;;10.60;;
10497;SDS011;5296;51.060;13.750;2023-01-08T21:24:32;12.65;;;11.27;;
10497;SDS011;5296;51.060;13.750;2023-01-08T21:29:33;11.88;;;10.68;;
10497;SDS011;5296;51.060;13.750;2023-01-08T21:34:35;11.73;;;10.52;;
10497;SDS011;5296;51.060;13.750;2023-01-08T21:39:37;11.70;;;10.43;;
10497;SDS011;5296;51.060;13.750;2023-01-08T21:44:38;12.20;;;10.73;;
10497;SDS011;5296;51.060;13.750;2023-01-08T21:49:58;11.98;;;10.77;;
10497;SDS011;5296;51.060;13.750;2023-01-08T21:55:00;12.52;;;11.15;;
10497;SDS011;5296;51.060;13.750;2023-01-08T22:00:02;12.57;;;10.55;;
10497;SDS011;5296;51.060;13.750;2023-01-08T22:05:05;11.97;;;10.77;;
10497;SDS011;5296;51.060;13.750;2023-01-08T22:10:07;12.65;;;10.75;;
10497;SDS011;5296;51.060;13.750;2023-01-08T22:15:09;12.80;;;11.27;;
10497;SDS011;5296;51.060;13.750;2023-01-08T22:20:12;13.13;;;11.57;;
10497;SDS011;5296;51.060;13.750;2023-01-08T22:25:13;12.25;;;10.95;;
10497;SDS011;5296;51.060;13.750;2023-01-08T22:30:15;13.52;;;10.65;;
10497;SDS011;5296;51.060;13.750;2023-01-08T22:35:17;12.60;;;11.30;;
10497;SDS011;5296;51.060;13.750;2023-01-08T22:40:19;12.18;;;10.88;;
10497;SDS011;5296;51.060;13.750;2023-01-08T22:45:21;12.43;;;11.13;;
10497;SDS011;5296;51.060;13.750;2023-01-08T22:50:22;12.90;;;11.55;;
10497;SDS011;5296;51.060;13.750;2023-01-08T22:55:24;12.15;;;10.80;;
10497;SDS011;5296;51.060;13.750;2023-01-08T23:00:25;12.07;;;10.88;;
10497;SDS011;5296;51.060;13.750;2023-01-08T23:05:27;12.68;;;11.32;;
10497;SDS011;5296;51.060;13.750;2023-01-08T23:10:29;13.18;;;10.70;;
10497;SDS011;5296;51.060;13.750;2023-01-08T23:15:30;12.25;;;10.93;;
10497;SDS011;5296;51.060;13.750;2023-01-08T23:20:32;13.48;;;11.30;;
10497;SDS011;5296;51.060;13.750;2023-01-08T23:25:33;12.57;;;11.18;;
10497;SDS011;5296;51.060;13.750;2023-01-08T23:30:35;13.18;;;11.70;;
10497;SDS011;5296;51.060;13.750;2023-01-08T23:35:40;12.45;;;11.15;;
10497;SDS011;5296;51.060;13.750;2023-01-08T23:40:43;14.73;;;12.05;;
10497;SDS011;5296;51.060;13.750;2023-01-08T23:45:45;13.48;;;11.30;;
10497;SDS011;5296;51.060;13.750;2023-01-08T23:50:47;12.88;;;11.10;;
10497;SDS011;5296;51.060;13.750;2023-01-08T23:55:48;13.27;;;10.95;;
